createdAt,value
2023-06-24T00:02:25.209Z,6.78
2023-06-24T00:04:53.301Z,6.38
2023-06-24T00:07:23.368Z,6.50
2023-06-24T00:09:52.562Z,6.57
2023-06-24T00:12:20.826Z,5.80
2023-06-24T00:14:48.875Z,6.10
2023-06-24T00:17:18.044Z,6.35
2023-06-24T00:19:46.045Z,6.20
2023-06-24T00:22:15.648Z,6.20
2023-06-24T00:24:43.846Z,5.63
2023-06-24T00:27:12.941Z,6.20
2023-06-24T00:29:40.407Z,6.03
2023-06-24T00:32:09.320Z,5.55
2023-06-24T00:34:36.921Z,6.32
2023-06-24T00:37:04.825Z,6.20
2023-06-24T00:39:33.136Z,5.90
2023-06-24T00:42:00.615Z,6.70
2023-06-24T00:44:29.464Z,6.15
2023-06-24T00:46:57.098Z,6.55
2023-06-24T00:49:24.631Z,6.00
2023-06-24T00:51:52.603Z,6.40
2023-06-24T00:54:20.209Z,6.68
2023-06-24T00:56:48.630Z,6.45
2023-06-24T00:59:18.507Z,6.55
2023-06-24T01:01:48.437Z,6.15
2023-06-24T01:04:18.682Z,6.07
2023-06-24T01:06:46.358Z,6.22
2023-06-24T01:09:14.507Z,6.10
2023-06-24T01:11:42.017Z,6.40
2023-06-24T01:14:10.577Z,7.05
2023-06-24T01:16:46.605Z,6.43
2023-06-24T01:19:35.582Z,6.43
2023-06-24T01:22:12.737Z,6.22
2023-06-24T01:24:56.999Z,5.68
2023-06-24T01:27:58.155Z,5.97
2023-06-24T01:30:45.115Z,5.22
2023-06-24T01:33:22.289Z,5.82
2023-06-24T01:35:50.532Z,6.10
2023-06-24T01:38:25.099Z,5.88
2023-06-24T01:40:54.061Z,5.53
2023-06-24T01:43:24.271Z,5.95
2023-06-24T01:45:54.612Z,5.60
2023-06-24T01:48:27.181Z,6.22
2023-06-24T01:51:01.026Z,6.13
2023-06-24T01:53:30.471Z,5.80
2023-06-24T01:56:01.260Z,6.35
2023-06-24T01:58:30.002Z,6.32
2023-06-24T02:00:59.076Z,5.90
2023-06-24T02:03:29.706Z,6.25
2023-06-24T02:05:58.638Z,5.57
2023-06-24T02:08:27.431Z,5.93
2023-06-24T02:10:56.001Z,6.50
2023-06-24T02:13:25.004Z,6.22
2023-06-24T02:15:54.026Z,6.10
2023-06-24T02:18:24.383Z,6.10
2023-06-24T02:20:53.981Z,6.15
2023-06-24T02:23:23.209Z,5.75
2023-06-24T02:25:52.281Z,6.30
2023-06-24T02:28:20.347Z,6.32
2023-06-24T02:30:49.351Z,6.18
2023-06-24T02:33:17.161Z,5.95
2023-06-24T02:35:47.029Z,6.18
2023-06-24T02:38:16.163Z,6.40
2023-06-24T02:40:45.344Z,6.05
2023-06-24T02:43:13.439Z,5.93
2023-06-24T02:45:41.360Z,5.82
2023-06-24T02:48:11.060Z,6.32
2023-06-24T02:50:41.728Z,6.22
2023-06-24T02:53:09.824Z,6.28
2023-06-24T02:55:39.571Z,6.70
2023-06-24T02:58:08.959Z,6.10
2023-06-24T03:00:36.846Z,6.32
2023-06-24T03:03:06.307Z,6.13
2023-06-24T03:05:35.021Z,6.63
2023-06-24T03:08:04.685Z,6.57
2023-06-24T03:10:32.242Z,6.55
2023-06-24T03:13:01.114Z,6.50
2023-06-24T03:15:29.327Z,7.18
2023-06-24T03:17:57.237Z,6.43
2023-06-24T03:20:25.368Z,7.28
2023-06-24T03:22:53.470Z,6.80
2023-06-24T03:25:21.005Z,6.38
2023-06-24T03:27:48.484Z,6.45
2023-06-24T03:30:17.337Z,6.38
2023-06-24T03:32:48.231Z,5.97
2023-06-24T03:35:16.555Z,5.90
2023-06-24T03:37:44.034Z,5.85
2023-06-24T03:40:12.322Z,6.25
2023-06-24T03:42:39.806Z,6.53
2023-06-24T03:45:08.376Z,6.35
2023-06-24T03:47:37.191Z,6.30
2023-06-24T03:50:04.903Z,6.40
2023-06-24T03:52:32.418Z,6.25
2023-06-24T03:54:59.906Z,6.22
2023-06-24T03:57:27.418Z,6.45
2023-06-24T03:59:54.932Z,6.15
2023-06-24T04:02:22.866Z,5.80
2023-06-24T04:04:53.108Z,5.95
2023-06-24T04:07:28.257Z,6.00
2023-06-24T04:09:56.926Z,6.15
2023-06-24T04:12:24.487Z,6.38
2023-06-24T04:14:52.259Z,6.05
2023-06-24T04:17:19.995Z,5.85
2023-06-24T04:19:47.564Z,6.43
2023-06-24T04:22:16.436Z,6.13
2023-06-24T04:24:43.919Z,5.75
2023-06-24T04:27:11.410Z,6.13
2023-06-24T04:29:38.933Z,6.22
2023-06-24T04:32:06.941Z,6.65
2023-06-24T04:34:34.483Z,6.10
2023-06-24T04:37:02.010Z,5.15
2023-06-24T04:39:30.863Z,5.95
2023-06-24T04:41:58.377Z,5.60
2023-06-24T04:44:25.847Z,5.60
2023-06-24T04:46:53.656Z,5.43
2023-06-24T04:49:21.156Z,5.13
2023-06-24T04:51:48.700Z,5.78
2023-06-24T04:54:16.165Z,6.13
2023-06-24T04:56:47.311Z,5.95
2023-06-24T04:59:16.303Z,5.40
2023-06-24T05:01:43.783Z,5.75
2023-06-24T05:04:11.297Z,5.05
2023-06-24T05:06:38.842Z,5.03
2023-06-24T05:09:06.628Z,5.43
2023-06-24T05:11:34.091Z,5.13
2023-06-24T05:14:03.169Z,5.30
2023-06-24T05:16:30.622Z,5.88
2023-06-24T05:18:58.124Z,5.20
2023-06-24T05:21:25.617Z,4.97
2023-06-24T05:23:53.096Z,5.43
2023-06-24T05:26:20.570Z,5.13
2023-06-24T05:28:48.061Z,4.97
2023-06-24T05:31:16.881Z,4.82
2023-06-24T05:33:44.356Z,4.88
2023-06-24T05:36:11.804Z,5.07
2023-06-24T05:38:39.287Z,5.20
2023-06-24T05:41:06.764Z,4.78
2023-06-24T05:43:34.317Z,4.85
2023-06-24T05:46:01.790Z,5.32
2023-06-24T05:48:30.652Z,5.07
2023-06-24T05:50:58.147Z,5.10
2023-06-24T05:53:25.769Z,4.95
2023-06-24T05:55:53.278Z,4.82
2023-06-24T05:58:20.780Z,4.60
2023-06-24T06:00:48.284Z,4.88
2023-06-24T06:03:15.854Z,5.03
2023-06-24T06:05:44.737Z,5.68
2023-06-24T06:08:12.210Z,5.20
2023-06-24T06:10:39.700Z,5.20
2023-06-24T06:13:07.359Z,5.13
2023-06-24T06:15:35.157Z,4.88
2023-06-24T06:18:02.957Z,5.15
2023-06-24T06:20:30.467Z,4.78
2023-06-24T06:22:59.480Z,5.13
2023-06-24T06:25:27.059Z,5.75
2023-06-24T06:27:54.606Z,5.50
2023-06-24T06:30:22.405Z,5.57
2023-06-24T06:32:50.000Z,5.68
2023-06-24T06:35:17.513Z,5.60
2023-06-24T06:37:45.864Z,5.28
2023-06-24T06:40:14.931Z,5.57
2023-06-24T06:42:43.260Z,5.78
2023-06-24T06:45:11.609Z,5.60
2023-06-24T06:47:39.336Z,6.20
2023-06-24T06:50:08.795Z,6.78
2023-06-24T06:52:36.464Z,6.63
2023-06-24T06:55:04.017Z,6.97
2023-06-24T06:57:32.901Z,6.63
2023-06-24T07:00:00.424Z,7.22
2023-06-24T07:02:28.002Z,7.07
2023-06-24T07:04:55.643Z,7.82
2023-06-24T07:07:23.194Z,7.35
2023-06-24T07:09:50.739Z,7.43
2023-06-24T07:12:18.420Z,7.70
2023-06-24T07:14:47.376Z,8.15
2023-06-24T07:17:15.498Z,7.07
2023-06-24T07:19:43.008Z,6.97
2023-06-24T07:22:10.534Z,7.13
2023-06-24T07:24:38.117Z,7.07
2023-06-24T07:27:06.234Z,7.63
2023-06-24T07:29:33.789Z,7.10
2023-06-24T07:32:02.811Z,7.32
2023-06-24T07:34:31.231Z,9.05
2023-06-24T07:37:01.457Z,7.38
2023-06-24T07:39:30.840Z,6.82
2023-06-24T07:41:58.328Z,6.93
2023-06-24T07:44:25.794Z,7.30
2023-06-24T07:46:53.321Z,7.03
2023-06-24T07:49:22.119Z,7.30
2023-06-24T07:51:49.647Z,6.93
2023-06-24T07:54:17.346Z,7.03
2023-06-24T07:56:44.857Z,6.10
2023-06-24T07:59:12.363Z,7.13
2023-06-24T08:01:39.854Z,6.25
2023-06-24T08:04:07.394Z,7.18
2023-06-24T08:06:36.561Z,7.18
2023-06-24T08:09:04.110Z,7.57
2023-06-24T08:11:31.872Z,8.10
2023-06-24T08:13:59.376Z,7.95
2023-06-24T08:16:27.434Z,8.77
2023-06-24T08:18:55.142Z,8.38
2023-06-24T08:21:22.617Z,9.02
2023-06-24T08:23:53.337Z,8.75
2023-06-24T08:26:21.907Z,9.68
2023-06-24T08:28:50.259Z,10.10
2023-06-24T08:31:17.844Z,9.20
2023-06-24T08:33:46.665Z,10.68
2023-06-24T08:36:14.374Z,9.45
2023-06-24T08:38:41.903Z,9.90
2023-06-24T08:41:10.803Z,9.20
2023-06-24T08:43:39.922Z,11.55
2023-06-24T08:46:07.436Z,10.98
2023-06-24T08:48:41.120Z,9.82
2023-06-24T08:51:10.625Z,11.50
2023-06-24T08:53:40.698Z,9.43
2023-06-24T08:56:08.513Z,9.60
2023-06-24T08:58:37.587Z,8.82
2023-06-24T09:01:05.335Z,8.20
2023-06-24T09:03:33.065Z,8.52
2023-06-24T09:06:00.696Z,7.47
2023-06-24T09:08:28.217Z,7.90
2023-06-24T09:10:56.585Z,7.18
2023-06-24T09:13:35.509Z,8.27
2023-06-24T09:16:13.559Z,6.97
2023-06-24T09:18:41.093Z,7.72
2023-06-24T09:21:09.601Z,6.28
2023-06-24T09:23:39.701Z,7.35
2023-06-24T09:26:07.373Z,6.32
2023-06-24T09:28:34.854Z,7.20
2023-06-24T09:33:41.803Z,6.70
2023-06-24T09:36:13.759Z,7.15
2023-06-24T09:38:45.315Z,7.53
2023-06-24T09:41:14.519Z,6.15
2023-06-24T09:43:45.787Z,6.07
2023-06-24T09:46:16.646Z,5.75
2023-06-24T09:48:44.772Z,6.70
2023-06-24T09:51:14.335Z,6.10
2023-06-24T09:53:42.685Z,6.90
2023-06-24T09:56:11.932Z,6.20
2023-06-24T09:58:41.246Z,6.65
2023-06-24T10:01:09.026Z,5.78
2023-06-24T10:03:39.179Z,5.90
2023-06-24T10:06:08.597Z,6.40
2023-06-24T10:08:36.498Z,6.63
2023-06-24T10:11:04.122Z,6.78
2023-06-24T10:13:31.830Z,6.97
2023-06-24T10:16:00.086Z,7.32
2023-06-24T10:18:40.259Z,5.53
2023-06-24T10:21:09.398Z,6.03
2023-06-24T10:23:42.695Z,5.50
2023-06-24T10:26:12.424Z,6.25
2023-06-24T10:29:18.437Z,5.20
2023-06-24T10:31:54.405Z,4.95
2023-06-24T10:34:40.474Z,5.43
2023-06-24T10:37:12.278Z,6.25
2023-06-24T10:39:41.792Z,5.32
2023-06-24T10:42:43.678Z,4.90
2023-06-24T10:45:21.760Z,5.07
2023-06-24T10:47:51.404Z,5.05
2023-06-24T10:50:21.629Z,5.00
2023-06-24T10:52:51.266Z,5.18
2023-06-24T10:55:20.041Z,4.40
2023-06-24T10:57:47.624Z,4.82
2023-06-24T11:00:16.572Z,5.90
2023-06-24T11:02:44.547Z,5.13
2023-06-24T11:05:12.153Z,5.28
2023-06-24T11:07:41.520Z,5.68
2023-06-24T11:10:13.794Z,4.80
2023-06-24T11:12:42.751Z,5.07
2023-06-24T11:15:13.344Z,4.32
2023-06-24T11:17:41.483Z,5.07
2023-06-24T11:20:10.351Z,5.18
2023-06-24T11:22:38.039Z,4.97
2023-06-24T11:25:07.706Z,3.90
2023-06-24T11:27:35.272Z,4.70
2023-06-24T11:30:03.876Z,5.35
2023-06-24T11:32:38.236Z,4.35
2023-06-24T11:35:07.905Z,4.00
2023-06-24T11:37:35.491Z,4.70
2023-06-24T11:40:05.694Z,3.47
2023-06-24T11:42:37.463Z,4.05
2023-06-24T11:45:07.622Z,4.25
2023-06-24T11:47:35.790Z,3.78
2023-06-24T11:50:04.425Z,3.30
2023-06-24T11:52:40.290Z,3.85
2023-06-24T11:55:14.230Z,3.92
2023-06-24T11:57:57.860Z,3.88
2023-06-24T12:00:26.964Z,4.63
2023-06-24T12:02:56.152Z,4.60
2023-06-24T12:05:29.438Z,4.50
2023-06-24T12:07:58.924Z,3.90
2023-06-24T12:10:26.737Z,3.97
2023-06-24T12:12:55.620Z,3.83
2023-06-24T12:15:23.865Z,3.90
2023-06-24T12:17:51.470Z,4.40
2023-06-24T12:20:19.497Z,3.97
2023-06-24T12:22:47.535Z,3.90
2023-06-24T12:25:15.037Z,4.05
2023-06-24T12:27:44.389Z,4.45
2023-06-24T12:30:14.440Z,3.40
2023-06-24T12:32:42.281Z,3.88
2023-06-24T12:35:11.526Z,3.63
2023-06-24T12:37:39.238Z,3.90
2023-06-24T12:40:08.056Z,3.88
2023-06-24T12:42:35.718Z,3.33
2023-06-24T12:45:03.382Z,3.42
2023-06-24T12:47:32.313Z,3.30
2023-06-24T12:49:59.867Z,3.75
2023-06-24T12:52:27.346Z,3.65
2023-06-24T12:54:54.856Z,3.60
2023-06-24T12:57:22.361Z,3.80
2023-06-24T12:59:49.865Z,3.40
2023-06-24T13:02:17.347Z,3.30
2023-06-24T13:04:46.223Z,3.30
2023-06-24T13:07:15.978Z,3.42
2023-06-24T13:09:44.407Z,3.20
2023-06-24T13:12:11.922Z,3.80
2023-06-24T13:14:39.467Z,3.50
2023-06-24T13:17:07.526Z,3.83
2023-06-24T13:19:35.044Z,3.38
2023-06-24T13:22:03.876Z,3.30
2023-06-24T13:24:31.496Z,3.63
2023-06-24T13:26:58.999Z,3.88
2023-06-24T13:29:28.148Z,3.90
2023-06-24T13:31:55.619Z,4.10
2023-06-24T13:34:23.109Z,3.83
2023-06-24T13:36:50.590Z,3.67
2023-06-24T13:39:19.454Z,3.92
2023-06-24T13:41:47.371Z,4.10
2023-06-24T13:44:15.460Z,3.45
2023-06-24T13:46:42.990Z,3.38
2023-06-24T13:49:10.692Z,3.50
2023-06-24T13:51:38.960Z,3.60
2023-06-24T13:54:06.544Z,3.88
2023-06-24T13:56:35.435Z,3.70
2023-06-24T13:59:03.630Z,3.70
2023-06-24T14:01:32.486Z,3.67
2023-06-24T14:04:00.276Z,4.00
2023-06-24T14:06:28.191Z,4.45
2023-06-24T14:08:55.956Z,3.80
2023-06-24T14:11:23.563Z,3.50
2023-06-24T14:13:53.793Z,3.65
2023-06-24T14:16:22.417Z,3.83
2023-06-24T14:18:49.946Z,3.78
2023-06-24T14:21:17.495Z,4.07
2023-06-24T14:23:45.207Z,3.75
2023-06-24T14:26:12.724Z,3.22
2023-06-24T14:28:40.220Z,3.70
2023-06-24T14:31:09.105Z,3.72
2023-06-24T14:33:36.655Z,4.00
2023-06-24T14:36:04.468Z,3.90
2023-06-24T14:38:31.988Z,3.63
2023-06-24T14:40:59.488Z,3.63
2023-06-24T14:43:27.039Z,3.80
2023-06-24T14:45:54.579Z,3.85
2023-06-24T14:48:23.447Z,3.40
2023-06-24T14:50:51.317Z,3.80
2023-06-24T14:53:18.825Z,4.10
2023-06-24T14:55:46.319Z,3.28
2023-06-24T14:58:15.040Z,3.83
2023-06-24T15:00:43.094Z,3.50
2023-06-24T15:03:10.749Z,3.03
2023-06-24T15:05:40.305Z,3.53
2023-06-24T15:08:07.818Z,3.60
2023-06-24T15:10:35.573Z,3.58
2023-06-24T15:13:03.223Z,3.53
2023-06-24T15:15:30.714Z,3.28
2023-06-24T15:17:58.282Z,3.58
2023-06-24T15:20:25.941Z,3.90
2023-06-24T15:22:54.777Z,3.63
2023-06-24T15:25:22.243Z,3.70
2023-06-24T15:27:49.965Z,3.53
2023-06-24T15:30:18.233Z,3.40
2023-06-24T15:32:47.215Z,4.15
2023-06-24T15:35:14.839Z,3.22
2023-06-24T15:37:42.335Z,3.63
2023-06-24T15:40:12.157Z,3.70
2023-06-24T15:42:39.631Z,3.33
2023-06-24T15:45:07.978Z,3.47
2023-06-24T15:47:37.932Z,3.55
2023-06-24T15:50:07.288Z,3.60
2023-06-24T15:52:34.825Z,3.78
2023-06-24T15:55:02.405Z,3.90
2023-06-24T15:57:31.298Z,3.53
2023-06-24T15:59:58.785Z,3.30
2023-06-24T16:02:26.374Z,3.47
2023-06-24T16:04:54.035Z,3.40
2023-06-24T16:07:21.661Z,3.97
2023-06-24T16:09:49.202Z,3.85
2023-06-24T16:12:17.799Z,3.40
2023-06-24T16:14:46.633Z,3.80
2023-06-24T16:17:14.105Z,4.10
2023-06-24T16:19:41.646Z,3.80
2023-06-24T16:22:09.162Z,3.60
2023-06-24T16:24:36.927Z,3.70
2023-06-24T16:27:05.288Z,3.88
2023-06-24T16:29:32.782Z,3.55
2023-06-24T16:32:02.165Z,3.20
2023-06-24T16:34:30.850Z,3.38
2023-06-24T16:36:58.435Z,3.60
2023-06-24T16:39:25.927Z,3.38
2023-06-24T16:41:53.462Z,3.90
2023-06-24T16:44:20.981Z,3.60
2023-06-24T16:46:48.652Z,3.40
2023-06-24T16:49:17.513Z,3.55
2023-06-24T16:51:45.005Z,3.55
2023-06-24T16:54:12.491Z,3.50
2023-06-24T16:56:39.992Z,3.88
2023-06-24T16:59:07.560Z,3.50
2023-06-24T17:01:35.161Z,4.47
2023-06-24T17:04:02.778Z,4.57
2023-06-24T17:06:33.057Z,4.18
2023-06-24T17:09:00.805Z,4.75
2023-06-24T17:11:28.485Z,3.78
2023-06-24T17:13:55.998Z,3.80
2023-06-24T17:16:23.794Z,4.30
2023-06-24T17:18:51.305Z,4.05
2023-06-24T17:21:18.825Z,3.50
2023-06-24T17:23:47.770Z,3.88
2023-06-24T17:26:15.350Z,3.92
2023-06-24T17:28:43.796Z,4.10
2023-06-24T17:31:11.556Z,3.90
2023-06-24T17:33:39.098Z,3.72
2023-06-24T17:36:07.010Z,3.70
2023-06-24T17:38:34.481Z,3.58
2023-06-24T17:41:03.325Z,3.90
2023-06-24T17:43:30.824Z,4.00
2023-06-24T17:45:58.383Z,3.60
2023-06-24T17:48:25.905Z,4.18
2023-06-24T17:50:53.478Z,3.70
2023-06-24T17:53:21.843Z,3.75
2023-06-24T17:55:49.359Z,3.58
2023-06-24T17:58:18.198Z,3.80
2023-06-24T18:00:45.683Z,3.97
2023-06-24T18:03:13.271Z,3.63
2023-06-24T18:05:40.738Z,3.78
2023-06-24T18:08:08.297Z,3.70
2023-06-24T18:10:36.975Z,3.90
2023-06-24T18:13:04.869Z,4.03
2023-06-24T18:15:33.748Z,4.07
2023-06-24T18:18:01.319Z,3.88
2023-06-24T18:20:28.853Z,3.90
2023-06-24T18:22:56.384Z,4.10
2023-06-24T18:25:23.943Z,3.47
2023-06-24T18:27:51.482Z,3.60
2023-06-24T18:30:19.185Z,4.35
2023-06-24T18:32:48.062Z,3.95
2023-06-24T18:35:15.619Z,3.95
2023-06-24T18:37:43.129Z,3.97
2023-06-24T18:40:11.953Z,3.88
2023-06-24T18:42:39.460Z,3.92
2023-06-24T18:45:07.997Z,3.97
2023-06-24T18:47:35.568Z,3.83
2023-06-24T18:50:04.529Z,4.10
2023-06-24T18:52:32.002Z,4.35
2023-06-24T18:54:59.496Z,4.35
2023-06-24T18:57:26.990Z,4.22
2023-06-24T18:59:54.668Z,4.00
2023-06-24T19:02:22.218Z,4.15
2023-06-24T19:04:49.833Z,3.72
2023-06-24T19:07:18.693Z,4.00
2023-06-24T19:09:46.215Z,4.10
2023-06-24T19:12:13.897Z,3.70
2023-06-24T19:14:42.230Z,4.18
2023-06-24T19:17:09.713Z,4.00
2023-06-24T19:19:37.197Z,4.50
2023-06-24T19:22:06.352Z,4.57
2023-06-24T19:24:38.453Z,4.47
2023-06-24T19:27:06.564Z,4.35
2023-06-24T19:29:34.085Z,4.32
2023-06-24T19:32:01.734Z,4.28
2023-06-24T19:34:29.257Z,4.50
2023-06-24T19:36:56.824Z,5.75
2023-06-24T19:39:24.329Z,4.50
2023-06-24T19:41:53.176Z,4.80
2023-06-24T19:44:20.665Z,4.80
2023-06-24T19:46:48.182Z,4.60
2023-06-24T19:49:15.826Z,4.20
2023-06-24T19:51:43.353Z,4.70
2023-06-24T19:54:10.946Z,3.80
2023-06-24T19:56:38.437Z,3.67
2023-06-24T19:59:07.253Z,4.60
2023-06-24T20:01:34.817Z,4.68
2023-06-24T20:04:02.347Z,5.25
2023-06-24T20:06:29.988Z,4.40
2023-06-24T20:08:57.548Z,4.18
2023-06-24T20:11:25.079Z,4.47
2023-06-24T20:13:52.575Z,4.13
2023-06-24T20:16:21.410Z,4.43
2023-06-24T20:18:50.096Z,4.28
2023-06-24T20:21:17.646Z,3.65
2023-06-24T20:23:45.121Z,4.00
2023-06-24T20:26:12.613Z,4.07
2023-06-24T20:28:40.190Z,4.00
2023-06-24T20:31:07.826Z,4.30
2023-06-24T20:33:36.694Z,5.65
2023-06-24T20:36:04.491Z,5.53
2023-06-24T20:38:31.999Z,5.32
2023-06-24T20:40:59.954Z,5.65
2023-06-24T20:43:27.772Z,5.28
2023-06-24T20:45:56.632Z,5.30
2023-06-24T20:48:24.528Z,5.55
2023-06-24T20:50:53.648Z,4.85
2023-06-24T20:53:21.783Z,5.28
2023-06-24T20:55:49.300Z,4.70
2023-06-24T20:58:16.819Z,4.75
2023-06-24T21:00:44.284Z,4.93
2023-06-24T21:03:11.858Z,4.55
2023-06-24T21:05:39.454Z,5.07
2023-06-24T21:08:08.310Z,5.82
2023-06-24T21:10:35.971Z,5.15
2023-06-24T21:13:03.668Z,5.15
2023-06-24T21:15:31.168Z,4.93
2023-06-24T21:17:58.658Z,5.07
2023-06-24T21:20:26.271Z,4.88
2023-06-24T21:22:53.889Z,3.95
2023-06-24T21:25:22.839Z,4.50
2023-06-24T21:27:51.329Z,4.50
2023-06-24T21:30:18.848Z,4.50
2023-06-24T21:32:46.357Z,4.32
2023-06-24T21:35:14.085Z,4.35
2023-06-24T21:37:41.583Z,4.53
2023-06-24T21:40:10.005Z,4.30
2023-06-24T21:42:38.854Z,4.47
2023-06-24T21:45:07.746Z,4.38
2023-06-24T21:47:36.573Z,4.22
2023-06-24T21:50:04.425Z,4.72
2023-06-24T21:52:32.245Z,4.47
2023-06-24T21:54:59.779Z,4.45
2023-06-24T21:57:27.285Z,4.40
2023-06-24T21:59:56.169Z,4.32
2023-06-24T22:02:23.781Z,4.65
2023-06-24T22:04:51.327Z,4.13
2023-06-24T22:07:18.966Z,4.32
2023-06-24T22:09:46.581Z,4.43
2023-06-24T22:12:14.062Z,4.78
2023-06-24T22:14:42.099Z,4.00
2023-06-24T22:17:10.968Z,4.13
2023-06-24T22:19:38.462Z,4.15
2023-06-24T22:22:06.193Z,4.22
2023-06-24T22:24:33.663Z,4.47
2023-06-24T22:27:01.191Z,4.60
2023-06-24T22:29:28.710Z,4.45
2023-06-24T22:31:56.179Z,4.70
2023-06-24T22:34:25.065Z,4.63
2023-06-24T22:36:52.648Z,4.97
2023-06-24T22:39:20.118Z,4.68
2023-06-24T22:41:47.857Z,4.90
2023-06-24T22:44:16.189Z,4.22
2023-06-24T22:46:43.762Z,5.00
2023-06-24T22:49:11.294Z,4.82
2023-06-24T22:51:40.138Z,4.90
2023-06-24T22:54:07.618Z,5.38
2023-06-24T22:56:35.095Z,5.00
2023-06-24T22:59:02.582Z,5.03
2023-06-24T23:01:30.120Z,4.80
2023-06-24T23:03:58.253Z,5.38
2023-06-24T23:06:26.232Z,4.80
2023-06-24T23:08:56.024Z,5.03
2023-06-24T23:11:25.903Z,5.18
2023-06-24T23:13:54.290Z,5.13
2023-06-24T23:16:22.028Z,4.95
2023-06-24T23:18:50.138Z,5.35
2023-06-24T23:21:18.131Z,5.47
2023-06-24T23:23:46.031Z,4.63
2023-06-24T23:26:17.804Z,5.32
2023-06-24T23:28:47.349Z,5.15
2023-06-24T23:31:17.018Z,5.25
2023-06-24T23:33:45.865Z,5.40
2023-06-24T23:36:13.988Z,5.38
2023-06-24T23:38:41.872Z,5.00
2023-06-24T23:41:09.624Z,5.63
2023-06-24T23:43:38.942Z,5.20
2023-06-24T23:46:07.062Z,4.78
2023-06-24T23:48:34.584Z,5.78
2023-06-24T23:51:02.244Z,5.72
2023-06-24T23:53:29.740Z,5.47
2023-06-24T23:55:57.230Z,5.45
2023-06-24T23:58:24.732Z,5.47
